Torda, Románia

2014 Október 31 12:24 PM (EET időzóna) (GMT +0200)
CAMPIA TURZII | Change Station
CLOSE
Current Station
Repülőtér
Location: CAMPIA TURZII,
Elevation: 1083 ft
Közeli meteorológiai állomások

Elev 1083 ft 46.50 °N, 23.89 °E | Updated 24 minutes ago

Clear
Derült
48 °F
Hőérzet 48 °F
N
2
Szél: változó Szél: from változó

Ma
High -- | Low -- °F
--% Csapadék valószínű
Tegnapi
High -- | Low -- °F
Precip. -- hvlyk.
7:04 AM 5:11 PM
első negyed, 54% visible
Légnyomás 30.30 hvlyk.
Látótávolság 3.7 mérföld
Felhők Derült
Harmatpont 37 °F
Páratartalom 66%
Rainfall 0.00 hvlyk.
Hóréteg vastagsága Not available.
UV 3 out of 12
Pollen Not available.
A levegő minősége Not available.
Flu Activity Not available.
METAR LRCT 311000Z VRB02KT 6000 SKC 09/03 Q1026 WHT WHT

More Conditions Fewer Conditions

Légnyomás 30.30 hvlyk.
Látótávolság 3.7 mérföld
Felhők Derült
Harmatpont 37 °F
Páratartalom 66%
Rainfall 0.00 hvlyk.
Hóréteg vastagsága Not available.
UV 3 out of 12
Pollen Not available.
A levegő minősége Not available.
Flu Activity Not available.
METAR LRCT 311000Z VRB02KT 6000 SKC 09/03 Q1026 WHT WHT

More Conditions Fewer Conditions

10-Day Weather Forecast

Almanac

Csillagászat

Oct. 31, 2014 Kel Nyugszik
Tényleges idő
Civil alkony
Tengerészeti alkony
Csillagászati alkony
Hold
Látható fény időtartama
A nap hossza
Tomorrow will be .
, % of the Moon is Illuminated

Today's Extremes

Country Highs Country Lows

Community

WunderPhotos

Upload Photos

1,766,580 Fotók feltöltve.

WunderBlogs® & News

Nearby

A levegő minősége

  A levegő minősége AQ Index Szennyezőanyag
Not available.

Hóréteg vastagsága

Station Depth Elevation

Earthquake Activity

város Distance Mag. Time & Date
Minimum magnitude displayed is 2.5.

Coastal Water Temperatures

Hely Hőmérséklet

Közeli meteorológiai állomások